Vincent, KY

2:35 PM EDT on July 24, 2016 (GMT -0400)
wind cave ky | | Change Station

Elev 1027 ft 37.50 °N, 83.94 °W | Updated 8 minutes ago

Partly Cloudy
Partly Cloudy
104.5 °F
Feels Like 128 °F
N
1.6
Wind Variable Wind from West

Today
High -- | Low -- °F
--% Chance of Precip.
Yesterday
High -- | Low -- °F
Precip. -- in
Pressure 30.03 in
Visibility 10.0 miles
Clouds Few 3400 ft
Heat Index 128 °F
Dew Point 80 °F
Humidity 47%
Rainfall 0.00 in
Snow Depth Not available.
6:33 AM 8:49 PM
Waning Gibbous, 74% visible
METAR KJKL 241753Z AUTO VRB03KT 10SM FEW034 32/22 A3008 RMK AO2 SLP168 T03220222 10322 20233 58001
Pressure 30.03 in
Visibility 10.0 miles
Clouds Few 3400 ft
Heat Index 128 °F
Dew Point 80 °F
Humidity 47%
Rainfall 0.00 in
Snow Depth Not available.
6:33 AM 8:49 PM
Waning Gibbous, 74% visible
METAR KJKL 241753Z AUTO VRB03KT 10SM FEW034 32/22 A3008 RMK AO2 SLP168 T03220222 10322 20233 58001

10-Day Weather Forecast

Almanac

Astronomy

Jul. 24, 2016 Rise Set
Actual Time
Civil Twilight
Nautical Twilight
Astronomical Twilight
Moon
Length of Visible Light
Length of Day
Tomorrow will be .
, % of the Moon is Illuminated

Today's Extremes

State Highs State Lows

Community

WunderPhotos

Upload Photos

1,927,153 photos uploaded!

WunderBlog® & News

Nearby

Air Quality

  Air Quality AQ Index Pollutant
Not available.

Snow Depth

Station Depth Elevation

Earthquake Activity

City Distance Mag. Time & Date
Minimum magnitude displayed is 2.5.

Coastal Water Temperatures

Place Temperature

Stations

Nearby Weather Stations

Station Location Temp. Windchill Dew Point Humidity Wind Precip. Elev Updated Type
                   

Watches & Warnings

There are currently no watches in effect.